Time;durP1;ratioP1;P1;durP2;ratioP2;P2;SDS_P1;SDS_P2;PMS_P1;PMS_P2;Temp;Humidity;BMP_temperature;BMP_pressure;BME280_temperature;BME280_humidity;BME280_pressure;Samples;Min_cycle;Max_cycle;Signal;HPM_P1;HPM_P2
2022/03/10 00:00:56;;;;;;;7.75;3.45;;;9.70;99.90;;;;;;5034271;28;20036;-69
2022/03/10 00:03:22;;;;;;;8.07;3.30;;;9.70;99.90;;;;;;5032743;28;20060;-70
2022/03/10 00:05:48;;;;;;;6.22;3.05;;;9.80;99.90;;;;;;5033457;28;20540;-70
2022/03/10 00:08:13;;;;;;;9.02;4.15;;;9.80;99.90;;;;;;5033857;28;20029;-70
2022/03/10 00:10:39;;;;;;;7.47;3.45;;;9.80;99.90;;;;;;5033559;28;20017;-70
2022/03/10 00:13:05;;;;;;;6.95;3.65;;;9.70;99.90;;;;;;5033843;28;20500;-69
2022/03/10 00:15:31;;;;;;;8.32;3.22;;;9.70;99.90;;;;;;5034042;28;20037;-70
2022/03/10 00:17:56;;;;;;;5.07;2.83;;;9.70;99.90;;;;;;5033406;28;20041;-70
2022/03/10 00:20:23;;;;;;;9.43;3.67;;;9.70;99.90;;;;;;5033420;28;20024;-70
2022/03/10 00:22:52;;;;;;;5.63;3.20;;;9.80;99.90;;;;;;5033445;28;20030;-69
2022/03/10 00:25:18;;;;;;;9.43;3.27;;;9.80;99.90;;;;;;5033396;28;20081;-69
2022/03/10 00:27:45;;;;;;;8.75;3.88;;;9.90;99.90;;;;;;5033316;28;20069;-71
2022/03/10 00:30:11;;;;;;;7.32;2.95;;;9.80;99.90;;;;;;5033353;28;20171;-68
2022/03/10 00:32:49;;;;;;;6.32;2.60;;;9.80;99.90;;;;;;5015535;28;20091;-69
2022/03/10 00:35:17;;;;;;;11.73;3.35;;;9.80;99.90;;;;;;5033577;28;20037;-70
2022/03/10 00:37:43;;;;;;;6.95;3.15;;;9.80;99.90;;;;;;5033664;28;20035;-70
2022/03/10 00:40:09;;;;;;;7.15;3.22;;;9.90;99.90;;;;;;5033448;28;20021;-70
2022/03/10 00:42:37;;;;;;;4.60;3.00;;;9.90;99.90;;;;;;5033165;28;20013;-69
2022/03/10 00:45:03;;;;;;;8.82;3.88;;;9.90;99.90;;;;;;5033135;28;20031;-69
2022/03/10 00:47:29;;;;;;;5.20;3.05;;;9.80;99.90;;;;;;5033359;28;20057;-71
2022/03/10 00:49:54;;;;;;;8.52;3.25;;;9.80;99.90;;;;;;5033366;28;20057;-70
2022/03/10 00:52:20;;;;;;;6.82;3.47;;;9.90;99.90;;;;;;5033324;28;20461;-71
2022/03/10 00:54:46;;;;;;;7.35;3.75;;;9.90;99.90;;;;;;5033219;28;20029;-72
2022/03/10 00:57:11;;;;;;;10.35;4.25;;;9.70;99.90;;;;;;5032938;28;20060;-70
2022/03/10 00:59:37;;;;;;;7.75;2.75;;;9.60;99.90;;;;;;5032992;28;20379;-69
2022/03/10 01:02:03;;;;;;;7.85;3.53;;;9.60;99.90;;;;;;5032975;28;20026;-71
2022/03/10 01:04:28;;;;;;;6.95;2.83;;;9.60;99.90;;;;;;5032773;28;20026;-71
2022/03/10 01:06:54;;;;;;;7.68;3.25;;;9.60;99.90;;;;;;5033252;28;20021;-72
2022/03/10 01:09:19;;;;;;;8.65;4.07;;;9.60;99.90;;;;;;5033180;28;20037;-72
2022/03/10 01:11:45;;;;;;;9.90;3.90;;;9.60;99.90;;;;;;5032902;28;20490;-69
2022/03/10 01:14:11;;;;;;;11.45;5.70;;;9.60;99.90;;;;;;5032880;28;20048;-69
2022/03/10 01:16:36;;;;;;;27.55;16.40;;;9.60;99.90;;;;;;5037138;28;20025;-70
2022/03/10 01:19:02;;;;;;;18.73;11.10;;;9.60;99.90;;;;;;5036625;28;20030;-71
2022/03/10 01:21:29;;;;;;;20.58;13.23;;;9.60;99.90;;;;;;5036699;28;20057;-71
2022/03/10 01:23:54;;;;;;;9.35;5.13;;;9.60;99.90;;;;;;5036930;28;20049;-71
2022/03/10 01:26:20;;;;;;;11.38;6.07;;;9.60;99.90;;;;;;5037143;28;20025;-72
2022/03/10 01:28:46;;;;;;;16.70;8.32;;;9.60;99.90;;;;;;5036573;28;20067;-71
2022/03/10 01:31:11;;;;;;;14.77;9.43;;;9.70;99.90;;;;;;5036762;28;20092;-70
2022/03/10 01:33:37;;;;;;;28.75;16.10;;;9.70;99.90;;;;;;5036688;28;20037;-70
2022/03/10 01:36:03;;;;;;;40.92;22.90;;;9.70;99.90;;;;;;5036721;28;20053;-69
2022/03/10 01:38:28;;;;;;;22.02;12.10;;;9.80;99.90;;;;;;5036324;28;20029;-70
2022/03/10 01:40:55;;;;;;;14.85;8.18;;;9.80;99.90;;;;;;5036325;28;20033;-71
2022/03/10 01:43:21;;;;;;;32.42;21.02;;;9.80;99.90;;;;;;5018302;28;20057;-72
2022/03/10 01:45:46;;;;;;;30.85;20.23;;;9.80;99.90;;;;;;5036515;28;20122;-69
2022/03/10 01:48:12;;;;;;;22.90;15.10;;;9.80;99.90;;;;;;5036210;28;20032;-70
2022/03/10 01:50:38;;;;;;;19.67;12.27;;;9.90;99.90;;;;;;5036412;28;20024;-71
2022/03/10 01:53:04;;;;;;;23.48;15.70;;;9.90;99.90;;;;;;5036345;28;20087;-71
2022/03/10 01:55:30;;;;;;;26.15;15.80;;;10.10;99.90;;;;;;5036014;28;20021;-70
2022/03/10 01:57:56;;;;;;;15.35;6.68;;;10.10;99.90;;;;;;5035961;28;20029;-70
2022/03/10 02:00:22;;;;;;;21.50;14.35;;;10.20;99.90;;;;;;5035958;28;20021;-71
2022/03/10 02:02:48;;;;;;;20.50;13.80;;;10.30;99.90;;;;;;5035951;28;20013;-71
2022/03/10 02:05:13;;;;;;;22.10;13.35;;;10.40;99.90;;;;;;5035604;28;20091;-71
2022/03/10 02:10:27;;;;;;;19.52;10.15;;;10.50;99.90;;;;;;5036105;28;20036;-72
2022/03/10 02:12:55;;;;;;;38.58;27.73;;;10.50;99.90;;;;;;5035799;28;20124;-69
2022/03/10 02:18:08;;;;;;;35.30;27.55;;;10.60;99.90;;;;;;5035732;28;20452;-70
2022/03/10 02:20:35;;;;;;;27.90;21.70;;;10.60;99.90;;;;;;5035589;28;20029;-70
2022/03/10 02:23:01;;;;;;;16.58;11.10;;;10.50;99.90;;;;;;5036070;28;20477;-71
2022/03/10 02:25:28;;;;;;;15.40;9.95;;;10.50;99.90;;;;;;5035507;28;20029;-71
2022/03/10 02:27:55;;;;;;;17.50;12.10;;;10.50;99.90;;;;;;5034929;28;20029;-70
2022/03/10 02:30:23;;;;;;;18.70;13.00;;;10.60;99.90;;;;;;5035675;28;20485;-69
2022/03/10 02:32:49;;;;;;;26.70;16.95;;;10.50;99.90;;;;;;5017551;28;20393;-69
2022/03/10 02:35:16;;;;;;;27.25;14.15;;;10.50;99.90;;;;;;5035320;28;20064;-71
2022/03/10 02:37:42;;;;;;;20.85;13.30;;;10.40;99.90;;;;;;5035223;28;20549;-71
2022/03/10 02:40:09;;;;;;;23.40;15.45;;;10.40;99.90;;;;;;5017477;28;20397;-71
2022/03/10 02:42:34;;;;;;;23.55;16.33;;;10.40;99.90;;;;;;5035528;28;20045;-71
2022/03/10 02:45:01;;;;;;;21.75;13.63;;;10.30;99.90;;;;;;5035415;28;20123;-72
2022/03/10 02:47:27;;;;;;;17.40;12.07;;;10.20;99.90;;;;;;5035120;28;20108;-70
2022/03/10 02:49:53;;;;;;;16.10;11.85;;;10.10;99.90;;;;;;5017275;28;20025;-71
2022/03/10 02:52:19;;;;;;;11.10;6.53;;;10.00;99.90;;;;;;5035536;28;20087;-70
2022/03/10 02:54:45;;;;;;;16.65;9.32;;;9.90;99.90;;;;;;5034879;28;20482;-70
2022/03/10 02:57:12;;;;;;;12.57;8.23;;;9.80;99.90;;;;;;5035088;28;20049;-71
2022/03/10 02:59:37;;;;;;;12.95;8.25;;;9.70;99.90;;;;;;5035057;28;20489;-72
2022/03/10 03:02:04;;;;;;;20.67;11.82;;;9.70;99.90;;;;;;5034822;28;20031;-71
2022/03/10 03:04:30;;;;;;;17.02;11.00;;;9.70;99.90;;;;;;5034547;28;20053;-73
2022/03/10 03:06:56;;;;;;;16.85;12.13;;;9.70;99.90;;;;;;5035015;28;20064;-71
2022/03/10 03:09:21;;;;;;;12.80;5.85;;;9.70;99.90;;;;;;5034610;28;20022;-72
2022/03/10 03:11:48;;;;;;;10.68;5.65;;;9.80;99.90;;;;;;5034630;28;20022;-71
2022/03/10 03:14:13;;;;;;;15.63;8.63;;;9.80;99.90;;;;;;5034545;28;20014;-70
2022/03/10 03:16:40;;;;;;;15.20;7.95;;;9.70;99.90;;;;;;5035062;28;20064;-74
2022/03/10 03:19:05;;;;;;;12.52;8.60;;;9.70;99.90;;;;;;5034445;28;20397;-71
2022/03/10 03:21:31;;;;;;;13.27;7.78;;;9.60;99.90;;;;;;5034425;28;20032;-69
2022/03/10 03:23:57;;;;;;;14.52;9.80;;;9.50;99.90;;;;;;5034385;28;20026;-71
2022/03/10 03:26:23;;;;;;;14.85;8.27;;;9.40;99.90;;;;;;5034600;28;20025;-69
2022/03/10 03:28:48;;;;;;;11.30;7.25;;;9.40;99.90;;;;;;5034335;28;20092;-70
2022/03/10 03:31:14;;;;;;;8.02;3.95;;;9.40;99.90;;;;;;5034232;28;20063;-70
2022/03/10 03:33:40;;;;;;;7.90;4.47;;;9.40;99.90;;;;;;5034218;28;20071;-70
2022/03/10 03:36:06;;;;;;;9.02;6.45;;;9.50;99.90;;;;;;5034458;28;20022;-69
2022/03/10 03:38:32;;;;;;;15.20;5.00;;;9.60;99.90;;;;;;5034042;28;20390;-71
2022/03/10 03:40:58;;;;;;;10.55;5.28;;;9.70;99.90;;;;;;5034056;28;20045;-72
2022/03/10 03:43:24;;;;;;;9.80;6.53;;;9.70;99.90;;;;;;5034275;28;20021;-71
2022/03/10 03:45:50;;;;;;;11.18;5.20;;;9.80;99.90;;;;;;5033942;28;20033;-69
2022/03/10 03:48:16;;;;;;;7.65;4.47;;;9.80;99.90;;;;;;5033928;28;20060;-73
2022/03/10 03:50:41;;;;;;;10.98;5.63;;;9.80;99.90;;;;;;5033933;28;20053;-70
2022/03/10 03:53:07;;;;;;;8.10;4.65;;;9.80;99.90;;;;;;5034119;28;20032;-72
2022/03/10 03:55:33;;;;;;;6.80;4.28;;;9.80;99.90;;;;;;5033748;28;20149;-71
2022/03/10 03:57:58;;;;;;;7.25;3.55;;;9.90;99.90;;;;;;5033687;28;20029;-68
2022/03/10 04:00:24;;;;;;;10.07;4.10;;;10.00;99.90;;;;;;5034033;28;20394;-70
2022/03/10 04:02:50;;;;;;;7.38;3.85;;;10.00;99.90;;;;;;5033924;28;20135;-71
2022/03/10 04:05:16;;;;;;;9.65;3.72;;;10.00;99.90;;;;;;5030599;28;20420;-70
2022/03/10 04:07:42;;;;;;;10.10;3.60;;;10.00;99.90;;;;;;5053560;28;20025;-73
2022/03/10 04:10:08;;;;;;;8.02;3.50;;;10.00;99.90;;;;;;5053495;28;20117;-69
2022/03/10 04:12:35;;;;;;;7.25;3.60;;;10.10;99.90;;;;;;5053488;28;20104;-70
2022/03/10 04:15:01;;;;;;;7.18;3.63;;;10.10;99.90;;;;;;5053459;28;20029;-70
2022/03/10 04:17:27;;;;;;;11.02;3.75;;;10.10;99.90;;;;;;5053381;28;20112;-71
2022/03/10 04:19:53;;;;;;;10.65;4.57;;;10.10;99.90;;;;;;5053667;28;20104;-72
2022/03/10 04:22:18;;;;;;;7.88;3.80;;;10.10;99.90;;;;;;5053338;28;20384;-70
2022/03/10 04:24:44;;;;;;;10.35;3.63;;;10.10;99.90;;;;;;5053348;28;20078;-71
2022/03/10 04:27:10;;;;;;;8.77;3.78;;;10.20;99.90;;;;;;5053293;28;20096;-70
2022/03/10 04:29:36;;;;;;;8.00;3.92;;;10.20;99.90;;;;;;5053296;28;20096;-69
2022/03/10 04:32:01;;;;;;;9.13;3.58;;;10.20;99.90;;;;;;5053207;28;20104;-71
2022/03/10 04:34:27;;;;;;;10.98;4.32;;;10.20;99.90;;;;;;5053262;28;20450;-69
2022/03/10 04:36:52;;;;;;;6.05;3.35;;;10.20;99.90;;;;;;5053183;28;20439;-70
2022/03/10 04:39:18;;;;;;;8.15;3.90;;;10.20;99.90;;;;;;5053319;28;20087;-72
2022/03/10 04:41:44;;;;;;;9.10;3.97;;;10.20;99.90;;;;;;5068556;28;20071;-70
2022/03/10 04:44:10;;;;;;;10.82;3.92;;;10.20;99.90;;;;;;5053100;28;20021;-69
2022/03/10 04:46:36;;;;;;;8.88;3.22;;;10.20;99.90;;;;;;5053117;28;20478;-71
2022/03/10 04:49:02;;;;;;;9.15;4.75;;;10.20;99.90;;;;;;5053102;28;20061;-71
2022/03/10 04:51:28;;;;;;;6.63;3.10;;;10.20;99.90;;;;;;5056795;28;20060;-70
2022/03/10 04:53:54;;;;;;;11.73;3.53;;;10.20;99.90;;;;;;5057161;28;20029;-70
2022/03/10 04:56:20;;;;;;;7.22;3.22;;;10.20;99.90;;;;;;5057048;28;20017;-70
2022/03/10 04:58:46;;;;;;;11.95;4.60;;;10.20;99.90;;;;;;5057563;28;20044;-69
2022/03/10 05:01:12;;;;;;;8.23;4.07;;;10.20;99.90;;;;;;5057294;28;20017;-71
2022/03/10 05:03:38;;;;;;;8.68;3.40;;;10.20;99.90;;;;;;5056986;28;20021;-70
2022/03/10 05:06:04;;;;;;;10.48;3.63;;;10.20;99.90;;;;;;5040881;28;20042;-72
2022/03/10 05:08:29;;;;;;;7.97;3.60;;;10.20;99.90;;;;;;5037489;28;20028;-70
2022/03/10 05:10:55;;;;;;;7.53;3.15;;;10.20;99.90;;;;;;5037180;28;20026;-69
2022/03/10 05:13:21;;;;;;;10.80;3.72;;;10.20;99.90;;;;;;5036829;28;20040;-70
2022/03/10 05:15:47;;;;;;;9.23;3.83;;;10.20;99.90;;;;;;5036812;28;20033;-71
2022/03/10 05:18:13;;;;;;;8.18;3.33;;;10.20;99.90;;;;;;5036662;28;20103;-69
2022/03/10 05:20:38;;;;;;;6.93;3.20;;;10.20;99.90;;;;;;5037026;28;20018;-70
2022/03/10 05:23:05;;;;;;;8.77;3.88;;;10.30;99.90;;;;;;5036932;28;20060;-72
2022/03/10 05:25:33;;;;;;;9.38;3.55;;;10.30;99.90;;;;;;5036935;28;20018;-70
2022/03/10 05:27:59;;;;;;;10.52;3.30;;;10.20;99.90;;;;;;5036588;28;20113;-72
2022/03/10 05:30:25;;;;;;;8.90;3.38;;;10.20;99.90;;;;;;5036824;28;20446;-73
2022/03/10 05:32:51;;;;;;;13.32;3.28;;;10.20;99.90;;;;;;5036799;28;20032;-70
2022/03/10 05:35:18;;;;;;;8.63;2.92;;;10.20;99.90;;;;;;5036464;28;20095;-69
2022/03/10 05:37:45;;;;;;;6.50;3.20;;;10.20;99.90;;;;;;5018654;28;20054;-69
2022/03/10 05:40:19;;;;;;;8.77;3.40;;;10.20;99.90;;;;;;5036323;28;20086;-68
2022/03/10 05:42:46;;;;;;;15.35;3.88;;;10.20;99.90;;;;;;5036642;28;20025;-71
2022/03/10 05:45:13;;;;;;;7.32;3.42;;;10.20;99.90;;;;;;5036292;28;20022;-71
2022/03/10 05:47:41;;;;;;;10.70;3.80;;;10.20;99.90;;;;;;5036263;28;20026;-69
2022/03/10 05:50:08;;;;;;;11.18;3.90;;;10.20;99.90;;;;;;5036207;28;20394;-71
2022/03/10 05:52:33;;;;;;;7.32;3.05;;;10.20;99.90;;;;;;5036157;28;20028;-71
2022/03/10 05:54:59;;;;;;;9.85;3.92;;;10.20;99.90;;;;;;5036025;28;20030;-72
2022/03/10 05:57:25;;;;;;;8.35;3.85;;;10.20;99.90;;;;;;5035992;28;20489;-68
2022/03/10 05:59:50;;;;;;;7.70;3.80;;;10.20;99.90;;;;;;5036277;28;20055;-70
2022/03/10 06:02:17;;;;;;;6.88;3.70;;;10.20;99.90;;;;;;5035880;28;20021;-70
2022/03/10 06:04:43;;;;;;;11.10;4.22;;;10.20;99.90;;;;;;5023717;28;20051;-70
2022/03/10 06:07:09;;;;;;;13.45;4.10;;;10.20;99.90;;;;;;5055778;28;20028;-70
2022/03/10 06:09:35;;;;;;;8.55;4.18;;;10.20;99.90;;;;;;5055728;28;20021;-70
2022/03/10 06:12:02;;;;;;;8.15;4.32;;;10.20;99.90;;;;;;5056727;28;20049;-69
2022/03/10 06:14:28;;;;;;;10.60;3.88;;;10.20;99.90;;;;;;5055687;28;20075;-70
2022/03/10 06:16:53;;;;;;;13.30;4.50;;;10.20;99.90;;;;;;5055602;28;20053;-71
2022/03/10 06:19:19;;;;;;;10.10;6.03;;;10.20;99.90;;;;;;5055488;28;20071;-70
2022/03/10 06:21:46;;;;;;;13.27;7.00;;;10.10;99.90;;;;;;5055513;28;20204;-69
2022/03/10 06:24:12;;;;;;;8.52;3.63;;;10.10;99.90;;;;;;5055472;28;20013;-71
2022/03/10 06:26:38;;;;;;;13.63;4.10;;;10.20;99.90;;;;;;5054140;28;20047;-70
2022/03/10 06:29:05;;;;;;;8.93;3.70;;;10.20;99.90;;;;;;5055415;28;20021;-70
2022/03/10 06:31:31;;;;;;;10.65;4.38;;;10.20;99.90;;;;;;5055627;28;20032;-71
2022/03/10 06:34:00;;;;;;;6.72;3.30;;;10.20;99.90;;;;;;5055314;28;20500;-70
2022/03/10 06:36:26;;;;;;;11.00;4.00;;;10.20;99.90;;;;;;5055275;28;20520;-69
2022/03/10 06:38:53;;;;;;;7.35;3.63;;;10.10;99.90;;;;;;5055125;28;20021;-69
2022/03/10 06:41:19;;;;;;;11.05;3.78;;;10.20;99.90;;;;;;5055141;28;20421;-71
2022/03/10 06:43:45;;;;;;;10.45;4.43;;;10.10;99.90;;;;;;5055074;28;20017;-70
2022/03/10 06:46:10;;;;;;;12.30;5.30;;;10.10;99.90;;;;;;5055338;28;20489;-73
2022/03/10 06:48:36;;;;;;;14.88;5.82;;;10.10;99.90;;;;;;5055021;28;20033;-71
2022/03/10 06:51:03;;;;;;;12.80;6.93;;;10.10;99.90;;;;;;5053690;28;20025;-71
2022/03/10 06:53:28;;;;;;;9.48;5.30;;;10.10;99.90;;;;;;5055215;28;20060;-71
2022/03/10 06:55:54;;;;;;;12.88;5.50;;;10.20;99.90;;;;;;5055132;28;20049;-70
2022/03/10 06:58:20;;;;;;;11.10;4.72;;;10.20;99.90;;;;;;5054752;28;20496;-71
2022/03/10 07:00:45;;;;;;;9.60;4.88;;;10.30;99.90;;;;;;5070111;28;20095;-70
2022/03/10 07:03:11;;;;;;;9.13;3.70;;;10.30;99.90;;;;;;5055029;28;20021;-71
2022/03/10 07:05:37;;;;;;;9.25;3.97;;;10.40;99.90;;;;;;5042504;28;20533;-69
2022/03/10 07:08:03;;;;;;;10.35;4.28;;;10.50;99.90;;;;;;5034774;28;20523;-71
2022/03/10 07:10:29;;;;;;;8.45;4.05;;;10.50;99.90;;;;;;5034644;28;20108;-70
2022/03/10 07:12:54;;;;;;;9.13;4.80;;;10.50;99.90;;;;;;5016354;28;20112;-70
2022/03/10 07:15:20;;;;;;;14.48;4.50;;;10.40;99.90;;;;;;5034621;28;20108;-71
2022/03/10 07:17:46;;;;;;;10.70;3.85;;;10.40;99.90;;;;;;5034483;28;20025;-70
2022/03/10 07:20:14;;;;;;;9.18;2.97;;;10.30;99.90;;;;;;5034501;28;20398;-69
2022/03/10 07:22:40;;;;;;;14.10;3.50;;;10.30;99.90;;;;;;5034680;28;20036;-70
2022/03/10 07:25:08;;;;;;;9.45;3.22;;;10.20;99.90;;;;;;5034325;28;20386;-70
2022/03/10 07:27:34;;;;;;;8.15;2.70;;;10.20;99.90;;;;;;5034350;28;20021;-71
2022/03/10 07:30:02;;;;;;;9.48;3.47;;;10.10;99.90;;;;;;5034836;28;20378;-73
2022/03/10 07:32:28;;;;;;;18.88;3.95;;;10.10;99.90;;;;;;5034584;28;20030;-72
2022/03/10 07:34:54;;;;;;;9.20;3.90;;;10.00;99.90;;;;;;5034268;28;20034;-71
2022/03/10 07:37:20;;;;;;;9.75;4.13;;;10.00;99.90;;;;;;5034083;28;20201;-69
2022/03/10 07:39:46;;;;;;;6.22;2.30;;;9.90;99.90;;;;;;5034313;28;20076;-69
2022/03/10 07:42:12;;;;;;;10.75;2.40;;;9.90;99.90;;;;;;5033983;28;20470;-70
2022/03/10 07:44:38;;;;;;;10.07;2.35;;;9.80;99.90;;;;;;5033963;28;20068;-72
2022/03/10 07:47:04;;;;;;;7.45;2.03;;;9.90;99.90;;;;;;5034014;28;20101;-71
2022/03/10 07:49:29;;;;;;;11.23;2.15;;;9.90;99.90;;;;;;5034128;28;20391;-71
2022/03/10 07:51:56;;;;;;;9.80;2.20;;;9.80;99.90;;;;;;5043649;28;20025;-70
2022/03/10 07:54:22;;;;;;;14.05;5.05;;;9.80;99.90;;;;;;5053386;28;20033;-72
2022/03/10 07:56:48;;;;;;;12.18;5.18;;;9.80;99.90;;;;;;5053438;28;20036;-70
2022/03/10 07:59:14;;;;;;;14.27;4.50;;;9.80;99.90;;;;;;5052936;28;20040;-70
2022/03/10 08:01:40;;;;;;;10.95;2.75;;;9.80;99.90;;;;;;5053612;28;20420;-70
2022/03/10 08:04:05;;;;;;;11.18;2.60;;;9.90;99.90;;;;;;5052866;28;20493;-72
2022/03/10 08:06:31;;;;;;;9.82;2.92;;;9.80;99.90;;;;;;5071192;28;20056;-69
2022/03/10 08:08:57;;;;;;;8.82;2.00;;;9.90;99.90;;;;;;5073506;28;20072;-68
2022/03/10 08:11:23;;;;;;;11.77;2.30;;;10.00;99.90;;;;;;5073043;28;20032;-70
2022/03/10 08:13:48;;;;;;;10.02;2.63;;;10.00;99.90;;;;;;5073012;28;20024;-69
2022/03/10 08:16:14;;;;;;;9.43;2.70;;;10.10;99.90;;;;;;5073806;28;20481;-68
2022/03/10 08:18:40;;;;;;;8.40;2.42;;;10.00;99.90;;;;;;5072243;28;20025;-69
2022/03/10 08:21:06;;;;;;;7.78;2.15;;;10.00;99.90;;;;;;5073334;28;20433;-70
2022/03/10 08:23:32;;;;;;;8.88;2.40;;;10.00;99.90;;;;;;5072281;28;20031;-70
2022/03/10 08:25:57;;;;;;;8.82;3.70;;;10.00;99.90;;;;;;5072403;28;20027;-69
2022/03/10 08:28:26;;;;;;;13.02;5.45;;;10.00;99.90;;;;;;5071248;28;20066;-70
2022/03/10 08:30:51;;;;;;;16.30;7.60;;;10.10;99.90;;;;;;5071278;28;20495;-69
2022/03/10 08:33:17;;;;;;;29.17;15.05;;;10.10;99.90;;;;;;5072856;28;20055;-70
2022/03/10 08:35:43;;;;;;;21.38;9.70;;;10.10;99.90;;;;;;5072531;28;20499;-70
2022/03/10 08:38:09;;;;;;;21.60;7.82;;;10.10;99.90;;;;;;5072486;28;20488;-69
2022/03/10 08:40:34;;;;;;;11.40;6.43;;;10.10;99.90;;;;;;5072878;28;20087;-71
2022/03/10 08:43:00;;;;;;;9.98;3.30;;;10.10;99.90;;;;;;5072206;28;20031;-70
2022/03/10 08:45:26;;;;;;;11.75;3.47;;;10.20;99.90;;;;;;5072421;28;20029;-69
2022/03/10 08:47:55;;;;;;;9.68;3.85;;;10.20;99.90;;;;;;5072717;28;20020;-71
2022/03/10 08:50:24;;;;;;;6.82;3.33;;;10.30;99.90;;;;;;5072593;28;20082;-70
2022/03/10 08:52:50;;;;;;;6.32;2.30;;;10.40;99.90;;;;;;5071892;28;20107;-69
2022/03/10 08:55:16;;;;;;;9.00;2.85;;;10.30;99.90;;;;;;5072659;28;20112;-71
2022/03/10 08:57:42;;;;;;;9.18;2.95;;;10.30;99.90;;;;;;5071402;28;20040;-74
2022/03/10 09:00:10;;;;;;;6.90;2.78;;;10.30;99.90;;;;;;5072198;28;20029;-73
2022/03/10 09:02:35;;;;;;;7.22;2.35;;;10.20;99.90;;;;;;5072221;28;20108;-68
2022/03/10 09:05:01;;;;;;;7.93;2.28;;;10.30;99.90;;;;;;5060841;28;20148;-71
2022/03/10 09:07:27;;;;;;;6.28;2.35;;;10.30;99.90;;;;;;5052293;28;20500;-69
2022/03/10 09:09:52;;;;;;;5.93;2.08;;;10.30;99.90;;;;;;5051843;28;20057;-70
2022/03/10 09:12:18;;;;;;;6.70;2.30;;;10.20;99.90;;;;;;5052406;28;20021;-70
2022/03/10 09:14:43;;;;;;;6.88;2.83;;;10.20;99.90;;;;;;5051404;28;20021;-69
2022/03/10 09:17:09;;;;;;;12.80;3.53;;;10.20;99.90;;;;;;5032828;28;20025;-72
2022/03/10 09:19:35;;;;;;;9.05;3.40;;;10.20;99.90;;;;;;5051381;28;20032;-71
2022/03/10 09:22:01;;;;;;;6.20;3.05;;;10.30;99.90;;;;;;5033875;28;20103;-72
2022/03/10 09:24:27;;;;;;;8.00;3.08;;;10.30;99.90;;;;;;5051908;28;20025;-72
2022/03/10 09:26:53;;;;;;;6.25;2.90;;;10.30;99.90;;;;;;5050933;28;20043;-71
2022/03/10 09:29:19;;;;;;;8.77;2.90;;;10.30;99.90;;;;;;5047701;28;20108;-71
2022/03/10 09:31:45;;;;;;;9.25;4.32;;;10.30;99.90;;;;;;5052232;28;20032;-72
2022/03/10 09:34:10;;;;;;;7.72;3.10;;;10.30;99.90;;;;;;5049250;28;20104;-73
2022/03/10 09:36:36;;;;;;;10.95;3.75;;;10.40;99.90;;;;;;5054011;28;20112;-71
2022/03/10 09:39:02;;;;;;;9.05;3.80;;;10.40;99.90;;;;;;5055590;28;20036;-72
2022/03/10 09:41:29;;;;;;;7.20;3.13;;;10.40;99.90;;;;;;5055591;28;20032;-70
2022/03/10 09:43:55;;;;;;;9.75;3.15;;;10.40;99.90;;;;;;5036282;28;20021;-70
2022/03/10 09:46:21;;;;;;;8.55;2.80;;;10.50;99.90;;;;;;5042738;28;20024;-71
2022/03/10 09:48:47;;;;;;;8.50;3.30;;;10.50;99.90;;;;;;5055594;28;20065;-69
2022/03/10 09:51:15;;;;;;;6.75;2.83;;;10.50;99.90;;;;;;5055755;28;20036;-70
2022/03/10 09:53:41;;;;;;;7.95;2.65;;;10.40;99.90;;;;;;5055428;28;20040;-72
2022/03/10 09:56:07;;;;;;;5.78;1.65;;;10.40;99.90;;;;;;5056104;28;20017;-70
2022/03/10 09:58:33;;;;;;;5.60;2.05;;;10.40;99.90;;;;;;5055357;28;20478;-70
2022/03/10 10:01:08;;;;;;;6.32;2.67;;;10.40;99.90;;;;;;5055378;28;20032;-69
2022/03/10 10:03:34;;;;;;;4.93;1.80;;;10.40;99.90;;;;;;5055434;28;20545;-69
2022/03/10 10:06:02;;;;;;;6.15;2.25;;;10.50;99.90;;;;;;5054394;28;20140;-69
2022/03/10 10:08:30;;;;;;;5.50;2.53;;;10.50;99.90;;;;;;5056279;28;20036;-69
2022/03/10 10:10:59;;;;;;;7.10;2.47;;;10.60;99.90;;;;;;5055066;28;20118;-69
2022/03/10 10:13:42;;;;;;;8.20;2.80;;;10.60;99.90;;;;;;5054664;28;20103;-70
2022/03/10 10:16:17;;;;;;;6.05;1.77;;;10.70;99.90;;;;;;5054368;28;20044;-70
2022/03/10 10:18:43;;;;;;;5.75;1.77;;;10.70;99.90;;;;;;5055088;28;20021;-69
2022/03/10 10:21:10;;;;;;;7.53;2.15;;;10.80;99.90;;;;;;5055761;28;20021;-70
2022/03/10 10:23:38;;;;;;;6.10;2.20;;;10.80;99.90;;;;;;5055575;28;20024;-70
2022/03/10 10:26:07;;;;;;;6.00;1.60;;;10.60;99.90;;;;;;5053518;28;20495;-69
2022/03/10 10:28:35;;;;;;;3.95;1.77;;;10.60;99.90;;;;;;5054837;28;20071;-69
2022/03/10 10:31:17;;;;;;;6.93;1.90;;;10.60;99.90;;;;;;5055313;28;20390;-70
2022/03/10 10:34:02;;;;;;;4.78;2.00;;;10.60;99.90;;;;;;5054844;28;20029;-70
2022/03/10 10:36:33;;;;;;;6.93;2.10;;;10.60;99.90;;;;;;5055562;28;20044;-71
2022/03/10 10:39:17;;;;;;;10.13;2.38;;;10.70;99.90;;;;;;5054689;28;20025;-71
2022/03/10 10:41:45;;;;;;;6.85;3.45;;;10.80;99.90;;;;;;5055743;28;20025;-70
2022/03/10 10:44:23;;;;;;;6.43;3.30;;;10.80;99.90;;;;;;5054434;28;20025;-69
2022/03/10 10:46:58;;;;;;;11.68;6.15;;;10.90;99.90;;;;;;5055012;28;20071;-71
2022/03/10 10:49:24;;;;;;;11.32;3.97;;;10.90;99.90;;;;;;5053940;28;20082;-69
2022/03/10 10:51:51;;;;;;;10.68;4.97;;;11.00;99.90;;;;;;5054917;28;20025;-71
2022/03/10 10:54:20;;;;;;;8.05;4.50;;;11.10;99.90;;;;;;5054407;28;20075;-70
2022/03/10 10:56:54;;;;;;;5.47;2.30;;;11.10;99.90;;;;;;5054477;28;20481;-72
2022/03/10 10:59:40;;;;;;;7.45;3.47;;;11.10;99.90;;;;;;5055059;28;20025;-72
2022/03/10 11:02:07;;;;;;;9.73;2.60;;;11.20;99.90;;;;;;5055152;28;20023;-72
2022/03/10 11:04:33;;;;;;;8.52;3.65;;;11.40;99.90;;;;;;5054490;28;20063;-71
2022/03/10 11:06:59;;;;;;;12.77;4.95;;;11.70;99.90;;;;;;5054674;28;20021;-70
2022/03/10 11:09:25;;;;;;;8.60;4.43;;;11.80;99.90;;;;;;5053672;28;20025;-71
2022/03/10 11:11:52;;;;;;;5.53;2.33;;;11.90;99.90;;;;;;5054251;28;20035;-70
2022/03/10 11:14:18;;;;;;;9.85;4.43;;;11.90;99.90;;;;;;5054216;28;20032;-70
2022/03/10 11:16:46;;;;;;;5.40;2.97;;;12.10;99.90;;;;;;5054168;28;20033;-70
2022/03/10 11:19:13;;;;;;;5.20;1.90;;;12.50;99.90;;;;;;5053754;28;20111;-69
2022/03/10 11:21:49;;;;;;;5.47;2.70;;;12.80;99.90;;;;;;5054833;28;20021;-69
2022/03/10 11:24:34;;;;;;;6.68;3.58;;;13.30;99.90;;;;;;5054445;28;20493;-69
2022/03/10 11:27:17;;;;;;;6.25;3.20;;;14.10;99.90;;;;;;5054318;28;20409;-69
2022/03/10 11:29:47;;;;;;;5.57;2.38;;;15.00;99.90;;;;;;5054519;28;20069;-69
2022/03/10 11:32:13;;;;;;;3.80;2.47;;;15.60;99.90;;;;;;5054468;28;20017;-69
2022/03/10 11:34:50;;;;;;;4.15;2.22;;;15.70;99.90;;;;;;5054088;28;20017;-69
2022/03/10 11:37:35;;;;;;;2.33;1.63;;;15.40;99.90;;;;;;5054610;28;20036;-69
2022/03/10 11:40:01;;;;;;;3.60;1.73;;;15.40;99.90;;;;;;5054040;28;20070;-69
2022/03/10 11:42:29;;;;;;;5.07;2.90;;;15.40;99.90;;;;;;5054509;28;20032;-69
2022/03/10 11:45:05;;;;;;;7.25;4.30;;;14.80;99.90;;;;;;5053864;28;20104;-69
2022/03/10 11:47:31;;;;;;;8.43;4.90;;;14.30;99.90;;;;;;5053811;28;20021;-69
2022/03/10 11:49:57;;;;;;;7.57;5.75;;;14.00;99.90;;;;;;5053792;28;20025;-70
2022/03/10 11:52:25;;;;;;;8.98;5.60;;;13.80;99.90;;;;;;5053737;28;20021;-68
2022/03/10 11:55:05;;;;;;;7.95;4.78;;;13.80;99.90;;;;;;5053887;28;20164;-69
2022/03/10 11:57:53;;;;;;;5.32;3.78;;;14.00;99.90;;;;;;5053569;28;20053;-69
2022/03/10 12:00:22;;;;;;;4.95;2.80;;;14.60;99.90;;;;;;5053745;28;20025;-69
2022/03/10 12:02:57;;;;;;;2.17;1.90;;;14.90;99.90;;;;;;5053600;28;20060;-69
2022/03/10 12:05:24;;;;;;;2.70;2.25;;;;;;;;;;5053515;28;20468;-69
2022/03/10 12:07:54;;;;;;;3.20;2.15;;;;;;;;;;5053507;28;20508;-69
2022/03/10 12:10:22;;;;;;;3.20;2.10;;;15.50;99.90;;;;;;5053676;28;20424;-70
2022/03/10 12:12:48;;;;;;;3.13;1.50;;;18.10;99.90;;;;;;5035559;28;20397;-70
2022/03/10 12:15:30;;;;;;;2.78;1.98;;;18.90;99.90;;;;;;5053467;28;20025;-69
2022/03/10 12:17:55;;;;;;;3.40;1.40;;;19.60;99.90;;;;;;5035413;28;20477;-69
2022/03/10 12:20:26;;;;;;;2.13;1.20;;;19.80;99.90;;;;;;5053279;28;20092;-70
2022/03/10 12:23:03;;;;;;;3.20;1.50;;;19.60;99.90;;;;;;5053577;28;20044;-69
2022/03/10 12:25:30;;;;;;;2.10;1.40;;;18.90;99.90;;;;;;5053192;28;20021;-69
2022/03/10 12:27:57;;;;;;;1.38;1.20;;;18.40;99.90;;;;;;5053422;28;20055;-69
2022/03/10 12:30:25;;;;;;;1.20;0.85;;;18.50;99.90;;;;;;5053428;28;20431;-69
2022/03/10 12:32:52;;;;;;;3.03;1.02;;;18.60;99.90;;;;;;5053217;28;20087;-70
2022/03/10 12:35:25;;;;;;;1.95;0.68;;;18.70;99.90;;;;;;5053441;28;20039;-69
2022/03/10 12:37:51;;;;;;;3.10;1.50;;;18.80;99.90;;;;;;5053036;28;20028;-69
2022/03/10 12:40:18;;;;;;;0.93;0.63;;;18.60;99.90;;;;;;5053074;28;20017;-69
2022/03/10 12:42:46;;;;;;;0.75;0.60;;;18.80;99.90;;;;;;5053091;28;20052;-68
2022/03/10 12:45:12;;;;;;;0.63;0.50;;;19.10;99.90;;;;;;5053337;28;20544;-69
2022/03/10 12:47:43;;;;;;;0.98;0.88;;;19.10;99.90;;;;;;5053054;28;20477;-69
2022/03/10 12:50:10;;;;;;;1.83;0.70;;;19.40;99.90;;;;;;5053098;28;20484;-69